Time;durP1;ratioP1;P1;durP2;ratioP2;P2;SDS_P1;SDS_P2;PMS_P1;PMS_P2;Temp;Humidity;BMP_temperature;BMP_pressure;BME280_temperature;BME280_humidity;BME280_pressure;Samples;Min_cycle;Max_cycle;Signal;HPM_P1;HPM_P2
2022/06/08 00:01:17;;;;;;;1.77;1.00;;;;;;;19.59;56.27;97665.59;8346262;28;20263;-76
2022/06/08 00:05:20;;;;;;;2.20;1.30;;;;;;;19.51;56.83;97667.09;8331379;28;20232;-76
2022/06/08 00:09:23;;;;;;;1.97;1.00;;;;;;;19.53;56.24;97662.56;8316161;28;20233;-76
2022/06/08 00:13:25;;;;;;;3.53;1.20;;;;;;;19.51;56.53;97661.00;8316595;28;20236;-76
2022/06/08 00:17:30;;;;;;;1.23;1.10;;;;;;;19.48;56.67;97656.84;8316308;28;20539;-75
2022/06/08 00:21:32;;;;;;;2.60;1.23;;;;;;;19.58;56.58;97654.25;8316479;28;20234;-76
2022/06/08 00:25:35;;;;;;;3.13;1.00;;;;;;;19.54;56.66;97658.13;8316059;28;20234;-76
2022/06/08 00:29:38;;;;;;;1.67;1.10;;;;;;;19.49;56.81;97652.41;8316155;28;20238;-76
2022/06/08 00:33:42;;;;;;;1.43;1.00;;;;;;;19.54;57.26;97655.50;8316121;28;20240;-76
2022/06/08 00:37:45;;;;;;;3.67;1.10;;;;;;;19.51;57.04;97650.50;8315703;28;20241;-76
2022/06/08 00:41:52;;;;;;;2.23;1.10;;;;;;;19.50;56.94;97644.41;8315440;28;20244;-76
2022/06/08 00:45:55;;;;;;;1.83;1.10;;;;;;;19.47;56.99;97635.97;8315610;28;20642;-76
2022/06/08 00:50:01;;;;;;;3.57;1.33;;;;;;;19.33;57.38;97642.41;8315580;28;20233;-76
2022/06/08 00:54:08;;;;;;;2.97;1.20;;;;;;;19.42;57.22;97639.00;8315456;28;20265;-76
2022/06/08 00:58:14;;;;;;;3.10;0.90;;;;;;;19.46;57.14;97623.81;8315197;28;20238;-76
2022/06/08 01:02:18;;;;;;;2.23;1.00;;;;;;;19.47;56.81;97628.91;8322714;28;20231;-76
2022/06/08 01:06:24;;;;;;;1.20;1.00;;;;;;;19.46;57.27;97618.56;8347681;28;20246;-76
2022/06/08 01:10:29;;;;;;;3.13;1.07;;;;;;;19.43;57.57;97613.56;8347446;28;20229;-76
2022/06/08 01:14:31;;;;;;;2.27;1.03;;;;;;;19.38;58.11;97618.38;8346722;28;20556;-76
2022/06/08 01:18:35;;;;;;;1.93;1.00;;;;;;;19.42;57.73;97617.16;8347427;28;20238;-76
2022/06/08 01:22:40;;;;;;;1.90;1.30;;;;;;;19.38;57.47;97603.47;8347556;28;20469;-76
2022/06/08 01:26:47;;;;;;;1.30;1.13;;;;;;;19.40;57.96;97606.78;8347464;28;20228;-77
2022/06/08 01:30:55;;;;;;;2.23;1.40;;;;;;;19.44;57.72;97609.97;8347557;28;20225;-76
2022/06/08 01:35:07;;;;;;;1.77;1.27;;;;;;;19.32;57.86;97588.22;8347291;28;20243;-76
2022/06/08 01:39:17;;;;;;;3.37;1.30;;;;;;;19.24;58.11;97594.13;8347226;28;20245;-76
2022/06/08 01:43:33;;;;;;;3.93;1.10;;;;;;;19.10;58.77;97590.06;8347130;28;20239;-77
2022/06/08 01:47:45;;;;;;;1.47;1.27;;;;;;;19.05;58.84;97594.06;8346973;28;20228;-76
2022/06/08 01:52:15;;;;;;;2.87;1.20;;;;;;;19.07;58.51;97590.31;8347152;28;20236;-77
2022/06/08 01:56:24;;;;;;;2.40;1.23;;;;;;;19.08;58.99;97583.31;8347141;28;20241;-76
2022/06/08 02:00:32;;;;;;;3.10;1.30;;;;;;;19.01;59.27;97571.66;8346717;28;20241;-76
2022/06/08 02:04:44;;;;;;;2.83;1.23;;;;;;;19.01;59.20;97575.09;8346724;28;20229;-76
2022/06/08 02:08:49;;;;;;;1.60;1.40;;;;;;;18.96;59.30;97577.28;8346883;28;20243;-77
2022/06/08 02:12:56;;;;;;;2.07;1.20;;;;;;;18.98;59.36;97570.09;8346733;28;20229;-76
2022/06/08 02:17:05;;;;;;;4.07;1.30;;;;;;;18.91;59.61;97563.75;8346517;28;20236;-76
2022/06/08 02:21:11;;;;;;;1.90;1.23;;;;;;;18.89;59.39;97560.41;8346531;28;20241;-77
2022/06/08 02:25:17;;;;;;;2.67;1.10;;;;;;;18.84;59.46;97562.59;8346463;28;20229;-76
2022/06/08 02:29:24;;;;;;;2.50;1.27;;;;;;;18.77;59.63;97562.22;8352376;28;20232;-76
2022/06/08 02:37:54;;;;;;;3.10;1.30;;;;;;;18.76;60.06;97557.97;8352158;28;20248;-76
2022/06/08 02:42:03;;;;;;;1.77;1.40;;;;;;;18.77;59.99;97557.00;8351967;28;20240;-76
2022/06/08 02:46:12;;;;;;;3.03;1.23;;;;;;;18.80;59.67;97555.91;8351995;28;20431;-76
2022/06/08 02:50:18;;;;;;;2.00;1.53;;;;;;;18.55;60.49;97548.31;8351820;28;20235;-76
2022/06/08 02:54:24;;;;;;;4.17;1.50;;;;;;;18.69;59.81;97548.94;8351732;28;20566;-76
2022/06/08 02:58:31;;;;;;;2.73;1.40;;;;;;;18.70;59.97;97550.63;8351188;28;20250;-76
2022/06/08 03:02:39;;;;;;;4.37;1.40;;;;;;;18.65;60.05;97553.63;8351374;28;20427;-76
2022/06/08 03:06:47;;;;;;;3.60;1.60;;;;;;;18.69;59.83;97541.06;8351388;28;20241;-76
2022/06/08 03:10:51;;;;;;;2.00;1.63;;;;;;;18.62;60.18;97539.91;8351313;28;20236;-76
2022/06/08 03:14:54;;;;;;;3.67;1.40;;;;;;;18.59;59.95;97542.81;8351118;28;20255;-76
2022/06/08 03:18:59;;;;;;;2.20;1.50;;;;;;;18.54;59.92;97538.81;8350928;28;20233;-76
2022/06/08 03:23:01;;;;;;;2.57;1.57;;;;;;;18.54;60.30;97549.28;8350904;28;20243;-76
2022/06/08 03:27:08;;;;;;;1.67;1.17;;;;;;;18.48;60.51;97552.41;8350673;28;20236;-76
2022/06/08 03:31:11;;;;;;;2.27;1.50;;;;;;;18.49;60.42;97543.59;8350606;28;20228;-76
2022/06/08 03:35:16;;;;;;;3.30;1.47;;;;;;;18.45;60.16;97542.19;8350465;28;20414;-76
2022/06/08 03:39:19;;;;;;;3.13;1.60;;;;;;;18.42;60.04;97546.84;8349259;28;20240;-76
2022/06/08 03:43:22;;;;;;;4.70;1.80;;;;;;;18.35;60.26;97547.38;8349661;28;20251;-75
2022/06/08 03:47:27;;;;;;;2.77;1.67;;;;;;;18.24;60.17;97551.81;8350071;28;20239;-76
2022/06/08 03:51:32;;;;;;;4.53;1.93;;;;;;;18.28;60.67;97554.06;8350022;28;20233;-76
2022/06/08 03:55:36;;;;;;;2.40;2.00;;;;;;;18.30;60.56;97553.94;8349938;28;20239;-76
2022/06/08 03:59:40;;;;;;;4.07;1.73;;;;;;;18.17;61.07;97556.72;8349714;28;20237;-76
2022/06/08 04:03:43;;;;;;;2.97;1.60;;;;;;;18.29;60.35;97557.50;8349491;28;20228;-76
2022/06/08 04:07:48;;;;;;;3.03;1.90;;;;;;;18.22;60.35;97556.34;8349567;28;20299;-76
2022/06/08 04:11:51;;;;;;;6.60;1.90;;;;;;;18.06;61.14;97552.34;8349280;28;20237;-77
2022/06/08 04:15:53;;;;;;;3.80;1.70;;;;;;;18.20;60.43;97553.88;8349283;28;20534;-77
2022/06/08 04:19:56;;;;;;;4.97;1.90;;;;;;;17.93;61.18;97555.16;8349077;28;20244;-76
2022/06/08 04:24:01;;;;;;;2.03;1.77;;;;;;;18.08;60.31;97557.47;8348921;28;20228;-76
2022/06/08 04:28:04;;;;;;;6.27;2.00;;;;;;;18.20;60.60;97555.63;8348772;28;20236;-76
2022/06/08 04:32:09;;;;;;;3.77;2.00;;;;;;;18.20;60.42;97548.63;8348758;28;20228;-76
2022/06/08 04:36:12;;;;;;;8.07;2.07;;;;;;;18.23;60.22;97550.16;8348562;28;20264;-76
2022/06/08 04:40:17;;;;;;;2.60;1.80;;;;;;;18.34;59.92;97543.06;8348211;28;20240;-76
2022/06/08 04:44:20;;;;;;;4.23;1.90;;;;;;;18.20;60.47;97543.38;8348328;28;20228;-76
2022/06/08 04:48:23;;;;;;;2.13;1.70;;;;;;;18.06;61.29;97547.13;8344198;28;20236;-76
2022/06/08 04:52:26;;;;;;;3.47;1.77;;;;;;;18.29;60.43;97539.97;8348054;28;20232;-76
2022/06/08 04:56:30;;;;;;;2.00;1.80;;;;;;;18.30;60.56;97540.84;8348068;28;20232;-76
2022/06/08 05:00:33;;;;;;;3.47;1.90;;;;;;;18.39;60.75;97537.47;8347929;28;20236;-76
2022/06/08 05:04:36;;;;;;;7.13;2.60;;;;;;;18.40;60.92;97543.53;8345602;28;20235;-76
2022/06/08 05:08:40;;;;;;;4.50;1.97;;;;;;;18.55;60.15;97556.19;8347808;28;20431;-77
2022/06/08 05:12:45;;;;;;;2.87;1.80;;;;;;;18.85;59.60;97553.75;8347614;28;20494;-76
2022/06/08 05:16:48;;;;;;;5.33;2.20;;;;;;;18.76;59.86;97550.91;8347531;28;20241;-76
2022/06/08 05:20:51;;;;;;;4.03;2.13;;;;;;;18.73;60.50;97547.72;8347432;28;20544;-76
2022/06/08 05:24:54;;;;;;;6.20;2.23;;;;;;;19.00;59.45;97541.13;8347396;28;20423;-76
2022/06/08 05:28:58;;;;;;;2.93;2.00;;;;;;;19.01;58.97;97538.38;8347387;28;20413;-76
2022/06/08 05:33:05;;;;;;;5.23;2.10;;;;;;;18.59;60.40;97527.09;8347366;28;20363;-76
2022/06/08 05:37:07;;;;;;;2.90;1.80;;;;;;;19.18;58.73;97528.22;8347240;28;20539;-77
2022/06/08 05:41:10;;;;;;;3.87;1.77;;;;;;;19.39;57.95;97526.34;8347047;28;20239;-76
2022/06/08 05:45:17;;;;;;;3.70;1.70;;;;;;;19.33;58.38;97526.91;8347247;28;20453;-76
2022/06/08 05:49:20;;;;;;;3.93;1.70;;;;;;;19.31;58.78;97523.56;8347122;28;20561;-77
2022/06/08 05:53:23;;;;;;;4.63;2.60;;;;;;;19.56;58.27;97517.00;8346638;28;20431;-76
2022/06/08 05:57:26;;;;;;;3.80;1.63;;;;;;;19.30;59.39;97522.72;8347163;28;20232;-76
2022/06/08 06:01:30;;;;;;;2.13;1.57;;;;;;;19.62;58.63;97513.00;8348522;28;20229;-75
2022/06/08 06:05:33;;;;;;;5.03;1.80;;;;;;;19.30;58.84;97520.09;8353207;28;20238;-76
2022/06/08 06:09:36;;;;;;;4.13;1.80;;;;;;;19.53;59.47;97527.75;8353082;28;20231;-76
2022/06/08 06:13:39;;;;;;;5.47;1.70;;;;;;;19.59;59.07;97519.38;8353005;28;20233;-76
2022/06/08 06:17:43;;;;;;;4.33;1.60;;;;;;;19.87;56.84;97528.25;8352938;28;20236;-76
2022/06/08 06:21:46;;;;;;;5.63;2.00;;;;;;;20.09;55.65;97524.53;8352778;28;20237;-76
2022/06/08 06:25:50;;;;;;;4.30;1.63;;;;;;;20.52;54.05;97517.16;8352633;28;20296;-75
2022/06/08 06:29:53;;;;;;;3.80;1.40;;;;;;;20.61;54.33;97512.88;8352674;28;20237;-76
2022/06/08 06:33:57;;;;;;;3.00;1.53;;;;;;;20.60;54.08;97509.44;8352532;28;20269;-76
2022/06/08 06:38:01;;;;;;;3.37;1.50;;;;;;;20.92;53.87;97507.38;8352326;28;20232;-74
2022/06/08 06:42:05;;;;;;;6.10;2.10;;;;;;;21.21;52.48;97510.75;8351967;28;20561;-74
2022/06/08 06:46:09;;;;;;;2.60;1.53;;;;;;;21.12;53.33;97503.72;8352022;28;20246;-75
2022/06/08 06:50:16;;;;;;;4.10;1.50;;;;;;;21.19;52.38;97507.41;8351889;28;20245;-74
2022/06/08 06:54:18;;;;;;;3.53;1.40;;;;;;;21.34;52.18;97506.91;8351828;28;20237;-74
2022/06/08 06:58:22;;;;;;;2.03;1.40;;;;;;;21.53;51.98;97501.56;8351675;28;20228;-74
2022/06/08 07:02:27;;;;;;;5.80;1.83;;;;;;;21.57;51.52;97494.19;8350946;28;20295;-74
2022/06/08 07:06:31;;;;;;;4.77;1.63;;;;;;;21.71;51.64;97503.41;8351565;28;20431;-76
2022/06/08 07:10:34;;;;;;;3.00;1.47;;;;;;;22.09;51.15;97496.19;8351367;28;20241;-74
2022/06/08 07:14:37;;;;;;;3.20;1.60;;;;;;;21.57;51.63;97495.03;8351171;28;20235;-75
2022/06/08 07:18:40;;;;;;;5.57;1.80;;;;;;;21.78;51.37;97496.53;8351184;28;20232;-75
2022/06/08 07:22:44;;;;;;;4.87;1.40;;;;;;;22.37;49.98;97499.53;8350978;28;20239;-76
2022/06/08 07:26:47;;;;;;;3.90;1.40;;;;;;;22.65;49.67;97494.94;8350835;28;20231;-74
2022/06/08 07:30:52;;;;;;;5.83;1.50;;;;;;;22.66;47.77;97483.44;8350668;28;20224;-76
2022/06/08 07:34:55;;;;;;;5.83;1.57;;;;;;;22.84;47.42;97472.78;8350466;28;20228;-75
2022/06/08 07:38:59;;;;;;;4.90;1.50;;;;;;;23.00;46.43;97475.50;8350577;28;20232;-77
2022/06/08 07:43:02;;;;;;;4.70;1.67;;;;;;;23.17;45.30;97470.31;8350105;28;20247;-76
2022/06/08 07:47:06;;;;;;;4.40;1.60;;;;;;;23.25;45.37;97459.78;8350156;28;20235;-76
2022/06/08 07:51:09;;;;;;;5.93;1.70;;;;;;;23.55;45.30;97458.38;8350016;28;20236;-77
2022/06/08 07:55:13;;;;;;;6.33;1.87;;;;;;;22.71;46.22;97465.28;8349884;28;20637;-77
2022/06/08 07:59:16;;;;;;;4.40;1.50;;;;;;;22.48;46.58;97454.44;8350009;28;20243;-76
2022/06/08 08:03:19;;;;;;;3.27;1.27;;;;;;;23.56;45.25;97446.81;8349249;28;20246;-76
2022/06/08 08:07:22;;;;;;;3.37;1.50;;;;;;;24.19;43.12;97444.56;8349039;28;20235;-75
2022/06/08 08:11:26;;;;;;;4.00;1.40;;;;;;;24.25;43.56;97451.81;8349420;28;20231;-74
2022/06/08 08:15:30;;;;;;;6.70;1.83;;;;;;;24.46;41.66;97445.19;8349153;28;20231;-75
2022/06/08 08:19:33;;;;;;;5.23;1.67;;;;;;;23.80;41.51;97450.53;8348777;28;20344;-75
2022/06/08 08:23:37;;;;;;;6.57;1.63;;;;;;;22.98;43.07;97444.97;8348516;28;20580;-74
2022/06/08 08:27:42;;;;;;;11.20;2.27;;;;;;;23.36;42.60;97438.38;8348578;28;20291;-75
2022/06/08 08:31:45;;;;;;;9.30;1.50;;;;;;;22.96;41.81;97436.38;8332259;28;20230;-77
2022/06/08 08:35:50;;;;;;;9.60;1.67;;;;;;;23.12;42.55;97428.56;8316048;28;20232;-77
2022/06/08 08:39:52;;;;;;;3.77;1.30;;;;;;;;;;8315267;28;20224;-78
2022/06/08 08:43:57;;;;;;;6.87;1.67;;;;;;;23.18;41.88;97412.06;8314985;28;20240;-76
2022/06/08 08:48:04;;;;;;;6.47;1.63;;;;;;;23.15;43.10;97403.63;8315091;28;20429;-77
2022/06/08 08:52:16;;;;;;;5.90;1.40;;;;;;;23.30;42.08;97395.91;8315065;28;20319;-78
2022/06/08 08:56:25;;;;;;;5.27;1.50;;;;;;;23.50;42.15;97389.34;8313895;28;20562;-75
2022/06/08 09:00:37;;;;;;;5.07;1.50;;;;;;;23.69;41.62;97395.31;8315022;28;20237;-77
2022/06/08 09:04:47;;;;;;;5.70;1.50;;;;;;;24.33;39.52;97396.25;8342677;28;20239;-74
2022/06/08 09:08:53;;;;;;;5.47;1.53;;;;;;;24.74;37.27;97380.28;8349004;28;20235;-79
2022/06/08 09:12:56;;;;;;;4.40;1.37;;;;;;;23.67;40.76;97371.66;8347848;28;20238;-77
2022/06/08 09:17:15;;;;;;;7.30;1.80;;;;;;;23.30;41.60;97372.94;8329056;28;20240;-77
2022/06/08 09:21:26;;;;;;;4.20;1.37;;;;;;;22.81;41.36;97365.72;8314628;28;20275;-77
2022/06/08 09:25:31;;;;;;;7.57;1.50;;;;;;;22.48;42.43;97374.47;8314424;28;20228;-76
2022/06/08 09:29:34;;;;;;;6.03;1.50;;;;;;;22.67;42.10;97368.13;8314876;28;20232;-76
2022/06/08 09:33:39;;;;;;;4.20;1.53;;;;;;;23.30;41.19;97372.94;8314795;28;20240;-76
2022/06/08 09:37:42;;;;;;;4.83;1.50;;;;;;;24.02;40.04;97366.22;8318457;28;20250;-76
2022/06/08 09:41:50;;;;;;;3.40;1.60;;;;;;;23.95;38.78;97355.47;8321141;28;20418;-76
2022/06/08 09:45:54;;;;;;;6.87;2.47;;;;;;;24.81;37.44;97351.28;8321225;28;20412;-76
2022/06/08 09:54:25;;;;;;;4.30;1.30;;;;;;;26.12;34.92;97339.75;8320950;28;20323;-77
2022/06/08 09:58:39;;;;;;;5.73;1.30;;;;;;;25.65;34.03;97321.44;8327756;28;20226;-77
2022/06/08 10:02:48;;;;;;;4.27;1.50;;;;;;;25.48;32.84;97326.06;8331058;28;20239;-77
2022/06/08 10:06:59;;;;;;;3.57;1.10;;;;;;;25.51;33.05;97315.94;8353377;28;20239;-78
2022/06/08 10:11:34;;;;;;;3.30;1.10;;;;;;;25.27;31.01;97313.47;8346520;28;20418;-77
2022/06/08 10:15:35;;;;;;;10.27;1.60;;;;;;;25.13;31.36;97304.41;8319572;28;20228;-78
2022/06/08 10:19:46;;;;;;;3.37;0.97;;;;;;;25.22;30.84;97303.34;8320222;28;20235;-75
2022/06/08 10:23:56;;;;;;;6.43;1.33;;;;;;;25.72;33.06;97309.09;8320007;28;20536;-77
2022/06/08 10:28:01;;;;;;;5.30;1.40;;;;;;;25.83;33.71;97300.72;8319843;28;20225;-76
2022/06/08 10:32:14;;;;;;;5.83;1.30;;;;;;;25.25;35.23;97300.41;8319677;28;20427;-76
2022/06/08 10:36:18;;;;;;;4.90;1.10;;;;;;;24.91;34.77;97290.97;8319585;28;20240;-77
2022/06/08 10:40:25;;;;;;;5.53;1.30;;;;;;;25.21;34.65;97296.41;8319308;28;20240;-78
2022/06/08 10:44:37;;;;;;;3.20;1.23;;;;;;;26.31;31.86;97287.97;8318912;28;20240;-77
2022/06/08 10:48:48;;;;;;;3.63;1.10;;;;;;;25.94;32.71;97287.03;8318593;28;20553;-77
2022/06/08 10:52:51;;;;;;;2.80;1.30;;;;;;;25.37;33.88;97290.19;8319095;28;20314;-77
2022/06/08 10:56:56;;;;;;;3.70;1.23;;;;;;;24.95;34.23;97289.63;8318838;28;20239;-77
2022/06/08 11:01:05;;;;;;;3.00;1.10;;;;;;;24.77;33.22;97276.69;8318649;28;20235;-76
2022/06/08 11:05:19;;;;;;;2.77;0.90;;;;;;;24.40;33.07;97278.16;8286338;28;20247;-76
2022/06/08 11:09:27;;;;;;;3.23;0.90;;;;;;;24.16;33.21;97271.16;8285772;28;20230;-74
2022/06/08 11:13:38;;;;;;;3.00;1.00;;;;;;;25.14;30.04;97264.50;8285967;28;20552;-76
2022/06/08 11:17:48;;;;;;;4.90;1.03;;;;;;;25.17;29.55;97266.81;8285900;28;20233;-77
2022/06/08 11:21:54;;;;;;;4.67;1.13;;;;;;;24.92;32.99;97258.22;8285763;28;20240;-78
2022/06/08 11:26:17;;;;;;;2.80;0.90;;;;;;;26.12;31.75;97254.00;8285613;28;20236;-77
2022/06/08 11:30:50;;;;;;;4.53;0.80;;;;;;;25.35;31.71;97250.63;8285257;28;20232;-77
2022/06/08 11:35:20;;;;;;;6.37;1.23;;;;;;;25.13;32.43;97254.06;8317510;28;20239;-77
2022/06/08 11:39:28;;;;;;;3.23;1.00;;;;;;;25.02;32.08;97249.19;8259613;28;20229;-77
2022/06/08 11:43:37;;;;;;;2.33;1.10;;;;;;;24.93;32.26;97243.16;8284820;28;20237;-77
2022/06/08 11:47:48;;;;;;;4.33;1.07;;;;;;;24.88;32.97;97238.34;8284945;28;20421;-77
2022/06/08 11:51:51;;;;;;;4.27;1.00;;;;;;;24.86;32.42;97237.72;8284656;28;20323;-77
2022/06/08 11:56:00;;;;;;;4.47;1.10;;;;;;;26.24;32.15;97228.66;8284564;28;20585;-77
2022/06/08 12:00:06;;;;;;;6.10;1.27;;;;;;;25.40;31.79;97225.41;8283717;28;20275;-78
2022/06/08 12:04:14;;;;;;;6.13;1.10;;;;;;;25.07;32.74;97225.66;8332122;28;20322;-77
2022/06/08 12:08:19;;;;;;;3.03;0.80;;;;;;;25.01;32.29;97213.94;8350201;28;20435;-78
2022/06/08 12:12:44;;;;;;;3.97;1.00;;;;;;;24.93;30.96;97214.84;8349005;28;20245;-78
2022/06/08 12:16:56;;;;;;;2.20;0.80;;;;;;;25.26;31.75;97211.94;8349355;28;20394;-77
2022/06/08 12:21:19;;;;;;;4.00;1.13;;;;;;;25.35;30.40;97202.91;8349173;28;20347;-77
2022/06/08 12:25:25;;;;;;;2.87;0.93;;;;;;;26.27;28.78;97198.28;8348722;28;20544;-76
2022/06/08 12:29:32;;;;;;;3.60;1.10;;;;;;;26.67;29.71;97199.59;8348906;28;20573;-76
2022/06/08 12:33:34;;;;;;;2.60;0.90;;;;;;;26.71;29.18;97176.94;8348843;28;20245;-77
2022/06/08 12:37:43;;;;;;;3.60;0.90;;;;;;;27.47;27.71;97172.88;8348705;28;20239;-77
2022/06/08 12:41:47;;;;;;;4.87;1.10;;;;;;;26.47;28.74;97175.44;8348267;28;20243;-77
2022/06/08 12:46:17;;;;;;;3.10;0.97;;;;;;;26.06;29.94;97172.50;8348378;28;20232;-81
2022/06/08 12:50:23;;;;;;;4.27;1.17;;;;;;;25.89;29.18;97167.41;8348360;28;20228;-76
2022/06/08 12:54:30;;;;;;;3.83;1.23;;;;;;;25.60;27.47;97165.56;8347852;28;20233;-77
2022/06/08 12:58:34;;;;;;;1.93;0.90;;;;;;;25.91;29.20;97159.22;8348104;28;20302;-76
2022/06/08 13:02:39;;;;;;;3.43;1.00;;;;;;;26.63;27.67;97162.97;8347962;28;20243;-75
2022/06/08 13:06:42;;;;;;;4.40;0.90;;;;;;;27.10;28.20;97165.00;8348075;28;20236;-79
2022/06/08 13:10:47;;;;;;;3.45;1.10;;;;;;;27.58;28.05;97155.56;8313906;28;20405;-79
2022/06/08 13:14:50;;;;;;;2.43;1.00;;;;;;;27.79;27.38;97141.34;8315115;28;20241;-79
2022/06/08 13:18:54;;;;;;;3.63;0.90;;;;;;;27.38;27.55;97142.97;8314978;28;20230;-79
2022/06/08 13:22:57;;;;;;;3.93;1.03;;;;;;;27.82;26.23;97148.94;8314879;28;20242;-79
2022/06/08 13:27:14;;;;;;;1.40;0.90;;;;;;;27.95;26.21;97143.72;8314733;28;20232;-80
2022/06/08 13:31:22;;;;;;;3.20;0.83;;;;;;;26.84;27.63;97143.53;8314749;28;20232;-82
2022/06/08 13:35:29;;;;;;;4.40;1.17;;;;;;;26.56;28.34;97143.44;8313853;28;20413;-78
2022/06/08 13:39:35;;;;;;;3.13;1.00;;;;;;;26.28;29.36;97146.84;8314619;28;20239;-78
2022/06/08 13:43:39;;;;;;;4.03;0.90;;;;;;;26.31;27.95;97139.34;8313973;28;20590;-79
2022/06/08 13:47:44;;;;;;;3.03;1.03;;;;;;;26.31;28.78;97136.69;8314403;28;20245;-79
2022/06/08 13:51:47;;;;;;;4.47;1.13;;;;;;;25.99;29.49;97121.19;8314488;28;20336;-79
2022/06/08 13:55:53;;;;;;;4.77;1.00;;;;;;;25.87;29.54;97132.25;8314285;28;20260;-79
2022/06/08 13:59:59;;;;;;;4.07;1.47;;;;;;;26.61;29.07;97131.28;8314159;28;20236;-78
2022/06/08 14:04:03;;;;;;;2.20;0.90;;;;;;;26.90;27.13;97129.50;8335791;28;20249;-78
2022/06/08 14:16:50;;;;;;;5.67;1.20;;;;;;;26.29;28.16;97124.59;8346835;28;20231;-79
2022/06/08 14:20:54;;;;;;;6.77;1.30;;;;;;;26.36;28.22;97120.19;8345688;28;20465;-79
2022/06/08 14:25:03;;;;;;;2.60;0.93;;;;;;;26.43;28.06;97121.09;8352015;28;20232;-79
2022/06/08 14:29:06;;;;;;;2.13;0.90;;;;;;;26.24;28.32;97119.06;8352809;28;20230;-79
2022/06/08 14:33:18;;;;;;;3.33;0.97;;;;;;;26.00;28.57;97113.06;8350013;28;20262;-79
2022/06/08 14:37:23;;;;;;;2.20;0.90;;;;;;;25.87;28.79;97100.44;8352416;28;20564;-79
2022/06/08 14:41:37;;;;;;;3.40;1.00;;;;;;;25.93;28.63;97104.19;8352131;28;20239;-79
2022/06/08 14:45:42;;;;;;;4.40;0.87;;;;;;;25.90;28.70;97102.72;8351893;28;20237;-79
2022/06/08 14:49:48;;;;;;;2.03;1.02;;;;;;;25.77;29.56;97094.59;8352150;28;20334;-78
2022/06/08 14:53:51;;;;;;;4.47;1.20;;;;;;;26.08;29.04;97090.91;8351993;28;20403;-78
2022/06/08 14:57:54;;;;;;;2.83;1.10;;;;;;;25.82;29.31;97091.41;8351959;28;20230;-77
2022/06/08 15:01:57;;;;;;;4.70;1.20;;;;;;;25.42;30.07;97083.78;8351569;28;20235;-78
2022/06/08 15:06:01;;;;;;;1.80;1.10;;;;;;;25.62;29.65;97096.47;8350588;28;20239;-78
2022/06/08 15:10:08;;;;;;;4.20;1.03;;;;;;;25.76;29.90;97090.31;8351688;28;20251;-77
2022/06/08 15:14:17;;;;;;;3.07;1.00;;;;;;;25.86;29.76;97090.03;8351449;28;20238;-78
2022/06/08 15:18:20;;;;;;;2.83;0.97;;;;;;;25.73;29.88;97096.81;8351136;28;20535;-78
2022/06/08 15:22:27;;;;;;;3.07;1.00;;;;;;;25.60;29.89;97086.03;8350752;28;20232;-77
2022/06/08 15:26:31;;;;;;;1.70;0.80;;;;;;;25.67;30.54;97089.59;8350990;28;20239;-78
2022/06/08 15:30:36;;;;;;;2.97;0.93;;;;;;;25.48;29.62;97080.38;8350851;28;20241;-78
2022/06/08 15:34:41;;;;;;;1.93;0.70;;;;;;;25.53;31.09;97078.00;8348124;28;20251;-78
2022/06/08 15:38:49;;;;;;;3.13;1.00;;;;;;;25.34;30.43;97067.94;8350673;28;20233;-78
2022/06/08 15:42:52;;;;;;;2.70;0.90;;;;;;;25.17;30.90;97073.41;8350168;28;20233;-77
2022/06/08 15:46:57;;;;;;;4.23;1.00;;;;;;;25.15;30.38;97075.44;8350424;28;20232;-77
2022/06/08 15:51:04;;;;;;;3.17;1.00;;;;;;;24.94;30.64;97062.06;8350092;28;20230;-78
2022/06/08 15:55:12;;;;;;;2.90;1.17;;;;;;;24.83;30.91;97065.13;8350063;28;20239;-78
2022/06/08 15:59:20;;;;;;;2.10;0.93;;;;;;;24.74;31.50;97067.88;8349941;28;20265;-78
2022/06/08 16:03:23;;;;;;;1.97;1.00;;;;;;;24.67;31.40;97064.28;8349282;28;20240;-77
2022/06/08 16:07:27;;;;;;;3.03;0.90;;;;;;;24.61;31.38;97070.31;8349762;28;20228;-77
2022/06/08 16:11:31;;;;;;;2.40;0.97;;;;;;;24.44;31.46;97066.13;8349479;28;20237;-78
2022/06/08 16:15:35;;;;;;;5.50;0.87;;;;;;;24.43;31.85;97073.25;8349416;28;20232;-78
2022/06/08 16:19:37;;;;;;;2.87;0.97;;;;;;;24.30;32.05;97065.06;8349320;28;20580;-78
2022/06/08 16:23:40;;;;;;;3.08;1.00;;;;;;;24.65;32.04;97068.94;8339785;28;20433;-79
2022/06/08 16:27:46;;;;;;;4.33;1.23;;;;;;;24.21;32.53;97066.94;8349345;28;20248;-77
2022/06/08 16:31:49;;;;;;;5.90;0.90;;;;;;;24.18;33.85;97062.84;8345661;28;20231;-81
2022/06/08 16:35:52;;;;;;;4.17;0.90;;;;;;;24.17;34.10;97073.59;8348966;28;20293;-81
2022/06/08 16:39:55;;;;;;;3.17;1.00;;;;;;;24.07;34.76;97070.34;8348866;28;20258;-80
2022/06/08 16:43:59;;;;;;;4.47;1.17;;;;;;;24.01;34.59;97066.59;8349071;28;20549;-79
2022/06/08 16:48:04;;;;;;;3.50;0.97;;;;;;;23.95;34.88;97060.19;8348180;28;20568;-79
2022/06/08 16:52:07;;;;;;;3.73;0.80;;;;;;;23.95;34.97;97057.53;8348310;28;20339;-80
2022/06/08 16:56:10;;;;;;;4.60;1.27;;;;;;;23.90;35.64;97061.69;8348207;28;20238;-78
2022/06/08 17:00:15;;;;;;;2.57;0.97;;;;;;;23.84;34.61;97065.84;8348491;28;20236;-85
2022/06/08 17:04:18;;;;;;;2.90;1.20;;;;;;;23.73;35.08;97072.31;8348611;28;20250;-83
2022/06/08 17:08:21;;;;;;;1.77;1.03;;;;;;;23.83;35.47;97064.19;8348615;28;20245;-84
2022/06/08 17:12:24;;;;;;;11.37;3.53;;;;;;;23.79;35.75;97069.00;8347858;28;20225;-80
2022/06/08 17:16:29;;;;;;;11.93;3.90;;;;;;;23.77;36.88;97070.16;8348205;28;20239;-83
2022/06/08 17:20:32;;;;;;;4.60;1.93;;;;;;;23.73;36.21;97074.16;8347725;28;20233;-77
2022/06/08 17:24:35;;;;;;;5.53;1.90;;;;;;;23.70;36.57;97074.47;8347528;28;20236;-76
2022/06/08 17:28:38;;;;;;;4.90;1.77;;;;;;;23.66;36.54;97073.19;8347514;28;20233;-80
2022/06/08 17:32:42;;;;;;;6.70;1.80;;;;;;;23.53;36.78;97073.72;8347574;28;20242;-80
2022/06/08 17:36:45;;;;;;;5.87;2.10;;;;;;;23.54;37.65;97081.47;8347406;28;20273;-81
2022/06/08 17:40:50;;;;;;;3.00;1.37;;;;;;;23.47;37.12;97085.78;8342396;28;20268;-91
2022/06/08 17:44:59;;;;;;;9.67;2.63;;;;;;;23.47;38.03;97082.34;8313882;28;20240;-78
2022/06/08 17:49:04;;;;;;;3.57;1.53;;;;;;;23.41;38.27;97081.19;8293090;28;20426;-81
2022/06/08 17:53:08;;;;;;;5.40;1.80;;;;;;;23.40;38.47;97083.03;8314425;28;20229;-79
2022/06/08 17:57:11;;;;;;;2.63;1.20;;;;;;;23.37;37.99;97087.81;8315560;28;20238;-79
2022/06/08 18:01:14;;;;;;;3.00;1.17;;;;;;;23.36;36.46;97091.44;8320888;28;20427;-82
2022/06/08 18:05:19;;;;;;;2.93;1.30;;;;;;;23.36;37.24;97096.72;8320609;28;20304;-79
2022/06/08 18:09:23;;;;;;;2.87;0.90;;;;;;;23.26;37.87;97107.50;8319825;28;20246;-77
2022/06/08 18:13:26;;;;;;;5.13;1.50;;;;;;;22.61;42.94;97137.38;8320345;28;20562;-79
2022/06/08 18:17:29;;;;;;;4.87;1.60;;;;;;;22.38;44.78;97150.41;8320413;28;20240;-79
2022/06/08 18:21:33;;;;;;;7.72;1.88;;;;;;;22.47;45.76;97165.25;8319181;28;20439;-86
2022/06/08 18:25:40;;;;;;;4.63;1.40;;;;;;;21.92;47.89;97171.00;8320018;28;20244;-81
2022/06/08 18:29:43;;;;;;;7.90;1.87;;;;;;;21.50;49.70;97180.50;8319958;28;20233;-82
2022/06/08 18:33:46;;;;;;;9.87;1.53;;;;;;;21.74;49.25;97179.81;8319744;28;20236;-83
2022/06/08 18:37:51;;;;;;;7.93;1.80;;;;;;;21.55;50.63;97188.78;8319648;28;20236;-76
2022/06/08 18:41:54;;;;;;;3.83;1.60;;;;;;;21.48;50.60;97185.13;8319343;28;20225;-77
2022/06/08 18:45:57;;;;;;;4.93;1.57;;;;;;;21.21;51.14;97196.56;8319231;28;20248;-77
2022/06/08 18:50:00;;;;;;;7.67;1.93;;;;;;;21.18;51.09;97202.97;8319246;28;20555;-77
2022/06/08 18:54:04;;;;;;;6.87;1.97;;;;;;;20.88;52.51;97205.03;8319243;28;20294;-75
2022/06/08 18:58:08;;;;;;;4.37;1.80;;;;;;;20.78;53.37;97211.38;8319074;28;20427;-77
2022/06/08 19:02:13;;;;;;;6.13;2.03;;;;;;;20.87;53.47;97223.63;8318976;28;20236;-82
2022/06/08 19:06:16;;;;;;;4.50;1.97;;;;;;;20.83;53.39;97233.63;8318662;28;20236;-78
2022/06/08 19:10:21;;;;;;;5.97;1.70;;;;;;;20.82;53.75;97224.06;8318067;28;20236;-77
2022/06/08 19:14:24;;;;;;;10.47;2.20;;;;;;;20.65;54.76;97232.78;8324712;28;20239;-75
2022/06/08 19:22:48;;;;;;;6.30;1.73;;;;;;;20.39;56.04;97237.88;8318284;28;20234;-76
2022/06/08 19:26:52;;;;;;;5.90;2.07;;;;;;;20.48;56.16;97239.63;8318157;28;20240;-76
2022/06/08 19:30:58;;;;;;;4.53;2.13;;;;;;;20.43;57.08;97249.78;8318301;28;20539;-76
2022/06/08 19:35:01;;;;;;;4.87;2.00;;;;;;;20.31;57.82;97241.25;8318001;28;20539;-76
2022/06/08 19:39:05;;;;;;;6.50;1.73;;;;;;;20.23;58.49;97255.13;8317726;28;20228;-76